createdAt,value
2018-06-29T05:03:04.359Z,87.66
2018-06-29T05:08:07.699Z,87.95
2018-06-29T05:13:11.044Z,88.60
2018-06-29T05:18:39.746Z,88.27
2018-06-29T05:23:43.099Z,88.03
2018-06-29T05:28:46.443Z,87.97
2018-06-29T05:33:49.794Z,88.17
2018-06-29T05:38:53.138Z,88.02
2018-06-29T05:43:56.471Z,87.80
2018-06-29T05:48:59.888Z,88.12
2018-06-29T05:54:03.235Z,87.31
2018-06-29T05:59:22.010Z,87.42
2018-06-29T06:04:26.128Z,87.49
2018-06-29T06:09:30.227Z,87.71
2018-06-29T06:14:33.567Z,86.85
2018-06-29T06:20:07.503Z,86.93
2018-06-29T06:25:10.839Z,86.83
2018-06-29T06:36:02.236Z,88.51
2018-06-29T06:41:05.576Z,87.93
2018-06-29T06:46:08.907Z,87.76
2018-06-29T06:51:12.251Z,87.93
2018-06-29T06:56:15.594Z,87.85
2018-06-29T07:01:18.926Z,88.00
2018-06-29T07:06:23.250Z,87.78
2018-06-29T07:11:26.589Z,87.74
2018-06-29T07:16:29.934Z,87.69
2018-06-29T07:21:33.278Z,88.12
2018-06-29T07:26:36.608Z,87.50
2018-06-29T07:31:40.888Z,87.84
2018-06-29T07:36:44.986Z,87.32
2018-06-29T07:41:48.323Z,87.17
2018-06-29T07:46:52.428Z,86.71
2018-06-29T07:51:55.762Z,86.16
2018-06-29T07:56:59.091Z,86.58
2018-06-29T08:02:03.195Z,86.58
2018-06-29T08:07:06.532Z,86.29
2018-06-29T08:12:09.883Z,86.15
2018-06-29T08:17:13.215Z,86.88
2018-06-29T08:22:16.553Z,86.71
2018-06-29T08:27:20.664Z,87.00
2018-06-29T08:32:24.030Z,86.13
2018-06-29T08:37:27.352Z,85.55
2018-06-29T08:42:30.687Z,86.10
2018-06-29T08:47:34.022Z,85.82
2018-06-29T08:52:37.370Z,86.12
2018-06-29T08:57:40.782Z,85.49
2018-06-29T09:02:44.112Z,85.07
2018-06-29T09:07:47.450Z,83.73
2018-06-29T09:12:50.795Z,84.43
2018-06-29T09:17:54.130Z,84.27
2018-06-29T09:22:57.466Z,84.08
2018-06-29T09:28:00.792Z,83.96
2018-06-29T09:33:04.122Z,83.91
2018-06-29T09:38:07.464Z,83.71
2018-06-29T09:43:11.563Z,83.45
2018-06-29T09:48:14.903Z,83.21
2018-06-29T09:53:18.277Z,82.90
2018-06-29T09:58:21.716Z,82.11
2018-06-29T10:03:25.155Z,81.34
2018-06-29T10:08:29.259Z,81.28
2018-06-29T10:13:32.614Z,79.82
2018-06-29T10:18:36.059Z,79.82
2018-06-29T10:23:39.431Z,80.20
2018-06-29T10:28:43.542Z,79.89
2018-06-29T10:33:46.884Z,78.73
2018-06-29T10:38:50.274Z,79.20
2018-06-29T10:43:53.597Z,77.93
2018-06-29T10:48:57.798Z,76.38
2018-06-29T10:54:01.243Z,77.53
2018-06-29T10:59:05.378Z,77.84
2018-06-29T11:04:08.806Z,78.44
2018-06-29T11:09:12.140Z,77.13
2018-06-29T11:14:15.487Z,76.78
2018-06-29T11:19:18.826Z,76.47
2018-06-29T11:24:22.924Z,77.06
2018-06-29T11:29:26.273Z,75.04
2018-06-29T11:34:29.610Z,76.17
2018-06-29T11:39:32.954Z,73.84
2018-06-29T11:44:36.283Z,74.43
2018-06-29T11:49:39.627Z,73.27
2018-06-29T11:54:43.727Z,73.14
2018-06-29T11:59:47.091Z,73.66
2018-06-29T12:04:50.430Z,72.47
2018-06-29T12:09:53.780Z,72.01
2018-06-29T12:14:57.167Z,70.29
2018-06-29T12:20:00.463Z,69.75
2018-06-29T12:25:03.828Z,67.51
2018-06-29T12:30:07.963Z,68.68
2018-06-29T12:35:11.322Z,68.07
2018-06-29T12:40:14.766Z,67.82
2018-06-29T12:45:18.104Z,66.95
2018-06-29T12:50:22.207Z,66.44
2018-06-29T12:55:25.563Z,65.85
2018-06-29T13:00:28.916Z,65.39
2018-06-29T13:05:32.436Z,65.20
2018-06-29T13:10:36.395Z,63.54
2018-06-29T13:15:39.743Z,64.25
2018-06-29T13:20:43.096Z,63.73
2018-06-29T13:25:46.434Z,60.65
2018-06-29T13:30:49.812Z,61.94
2018-06-29T13:35:53.116Z,60.83
2018-06-29T13:40:56.448Z,58.94
2018-06-29T13:45:59.786Z,59.10
2018-06-29T13:51:03.895Z,58.72
2018-06-29T13:56:07.250Z,58.00
2018-06-29T14:01:10.588Z,57.25
2018-06-29T14:06:13.934Z,54.95
2018-06-29T14:11:17.289Z,54.62
2018-06-29T14:16:20.630Z,53.24
2018-06-29T14:21:23.960Z,52.38
2018-06-29T14:26:27.295Z,51.74
2018-06-29T14:31:30.631Z,51.39
2018-06-29T14:36:34.734Z,50.48
2018-06-29T14:41:38.082Z,50.17
2018-06-29T14:46:41.423Z,49.05
2018-06-29T14:51:44.768Z,47.48
2018-06-29T14:56:48.120Z,46.02
2018-06-29T15:01:52.228Z,45.12
2018-06-29T15:06:56.339Z,44.88
2018-06-29T15:11:59.682Z,45.56
2018-06-29T15:17:03.783Z,45.45
2018-06-29T15:22:07.117Z,45.37
2018-06-29T15:27:10.458Z,45.49
2018-06-29T15:32:13.792Z,47.37
2018-06-29T15:37:17.156Z,49.41
2018-06-29T15:42:20.506Z,48.74
2018-06-29T15:47:23.855Z,48.08
2018-06-29T15:52:27.307Z,47.99
2018-06-29T15:57:31.686Z,46.93
2018-06-29T16:02:35.202Z,45.67
2018-06-29T16:07:38.671Z,44.32
2018-06-29T16:12:42.792Z,44.50
2018-06-29T16:17:46.581Z,44.74
2018-06-29T16:22:50.311Z,45.24
2018-06-29T16:27:53.991Z,45.39
2018-06-29T16:32:58.599Z,45.85
2018-06-29T16:38:02.224Z,46.39
2018-06-29T16:43:07.118Z,45.60
2018-06-29T16:48:10.656Z,45.25
2018-06-29T16:53:14.993Z,44.59
2018-06-29T16:58:18.419Z,44.40
2018-06-29T17:03:21.718Z,43.95
2018-06-29T17:08:25.051Z,43.98
2018-06-29T17:13:28.403Z,43.83
2018-06-29T17:18:36.018Z,44.10
2018-06-29T17:23:40.902Z,44.33
2018-06-29T17:28:47.670Z,44.14
2018-06-29T17:33:51.884Z,44.13
2018-06-29T17:38:55.151Z,44.21
2018-06-29T17:43:58.523Z,44.38
2018-06-29T17:49:01.867Z,44.29
2018-06-29T17:54:06.743Z,43.99
2018-06-29T17:59:12.392Z,44.86
2018-06-29T18:04:16.778Z,45.24
2018-06-29T18:09:21.699Z,45.53
2018-06-29T18:14:27.483Z,45.99
2018-06-29T18:19:37.467Z,46.50
2018-06-29T18:24:40.811Z,46.92
2018-06-29T18:29:47.716Z,47.64
2018-06-29T18:34:51.015Z,48.63
2018-06-29T18:39:57.776Z,48.95
2018-06-29T18:45:03.833Z,49.84
2018-06-29T18:50:10.412Z,50.15
2018-06-29T18:55:15.019Z,51.23
2018-06-29T19:00:18.416Z,51.80
2018-06-29T19:05:21.828Z,52.20
2018-06-29T19:10:25.946Z,52.46
2018-06-29T19:15:29.286Z,53.08
2018-06-29T19:26:14.808Z,54.35
2018-06-29T19:31:18.190Z,54.53
2018-06-29T19:36:21.511Z,55.05
2018-06-29T19:41:24.847Z,55.65
2018-06-29T19:46:28.200Z,56.03
2018-06-29T19:51:31.548Z,55.96
2018-06-29T19:56:34.895Z,56.27
2018-06-29T20:01:39.023Z,56.44
2018-06-29T20:06:42.536Z,56.91
2018-06-29T20:11:46.662Z,56.87
2018-06-29T20:16:50.119Z,57.01
2018-06-29T20:21:53.910Z,57.53
2018-06-29T20:26:57.275Z,57.67
2018-06-29T20:32:01.085Z,58.22
2018-06-29T20:37:05.416Z,58.23
2018-06-29T20:42:08.785Z,58.61
2018-06-29T20:47:12.124Z,59.15
2018-06-29T20:52:16.230Z,59.12
2018-06-29T20:57:19.570Z,59.12
2018-06-29T21:02:23.684Z,59.45
2018-06-29T21:07:27.035Z,59.88
2018-06-29T21:12:30.429Z,60.46
2018-06-29T21:17:33.728Z,60.46
2018-06-29T21:22:37.843Z,61.05
2018-06-29T21:27:41.188Z,61.53
2018-06-29T21:32:45.282Z,61.66
2018-06-29T21:37:48.623Z,62.11
2018-06-29T21:42:52.716Z,62.41
2018-06-29T21:47:56.062Z,62.37
2018-06-29T21:53:00.171Z,62.44
2018-06-29T21:58:03.523Z,62.68
2018-06-29T22:03:06.870Z,62.88
2018-06-29T22:08:10.214Z,63.19
2018-06-29T22:13:13.572Z,63.33
2018-06-29T22:18:16.911Z,63.40
2018-06-29T22:23:20.245Z,63.32
2018-06-29T22:28:23.583Z,63.37
